Time;durP1;ratioP1;P1;durP2;ratioP2;P2;SDS_P1;SDS_P2;PMS_P1;PMS_P2;Temp;Humidity;BMP_temperature;BMP_pressure;BME280_temperature;BME280_humidity;BME280_pressure;Samples;Min_cycle;Max_cycle;Signal;HPM_P1;HPM_P2
2022/11/23 00:01:13;;;;;;;;;4.00;2.33;;;;;10.50;62.80;99488.84;5057262;28;46678;-70
2022/11/23 00:03:39;;;;;;;;;2.67;2.67;;;;;10.41;62.84;99464.75;5037173;28;45376;-69
2022/11/23 00:06:04;;;;;;;;;5.67;4.67;;;;;10.44;63.08;99482.56;5050439;28;45995;-70
2022/11/23 00:08:30;;;;;;;;;1.67;1.67;;;;;10.42;63.33;99485.22;5062914;28;44716;-70
2022/11/23 00:10:58;;;;;;;;;7.25;3.00;;;;;10.47;63.54;99495.94;5057244;28;46225;-70
2022/11/23 00:13:25;;;;;;;;;11.00;5.00;;;;;10.35;63.42;99474.50;5058661;28;46252;-69
2022/11/23 00:15:50;;;;;;;;;9.25;5.00;;;;;10.37;63.30;99486.97;5056476;28;45485;-70
2022/11/23 00:18:16;;;;;;;;;6.25;5.00;;;;;10.39;63.76;99492.31;5056900;28;45412;-70
2022/11/23 00:20:41;;;;;;;;;5.00;5.00;;;;;10.31;63.57;99476.19;5056254;28;45701;-70
2022/11/23 00:23:07;;;;;;;;;8.00;6.25;;;;;10.11;63.34;99428.03;5055212;28;45360;-70
2022/11/23 00:25:34;;;;;;;;;3.00;3.00;;;;;10.23;63.43;99453.91;5037543;28;45333;-70
2022/11/23 00:27:59;;;;;;;;;6.33;4.67;;;;;10.38;63.36;99475.41;5056388;28;45452;-71
2022/11/23 00:30:24;;;;;;;;;5.00;4.67;;;;;10.33;63.65;99477.16;5055748;28;46093;-70
2022/11/23 00:32:50;;;;;;;;;6.00;3.50;;;;;10.32;63.47;99486.03;5056038;28;45338;-70
2022/11/23 00:35:15;;;;;;;;;7.00;4.00;;;;;10.31;63.61;99489.56;5037772;28;45616;-69
2022/11/23 00:37:40;;;;;;;;;6.50;6.00;;;;;10.25;64.13;99486.88;5056393;28;45341;-70
2022/11/23 00:40:06;;;;;;;;;4.00;3.00;;;;;10.15;63.95;99475.22;5036591;28;45895;-69
2022/11/23 00:42:32;;;;;;;;;11.25;5.00;;;;;10.17;64.52;99478.78;5055838;28;45592;-69
2022/11/23 00:44:57;;;;;;;;;6.00;3.00;;;;;10.14;64.04;99479.66;5056072;28;45328;-70
2022/11/23 00:47:22;;;;;;;;;7.00;4.00;;;;;10.09;64.11;99468.03;5055914;28;45371;-70
2022/11/23 00:49:48;;;;;;;;;4.00;4.00;;;;;10.13;64.10;99464.53;5055686;28;45498;-71
2022/11/23 00:52:13;;;;;;;;;7.00;3.75;;;;;10.15;63.81;99465.44;5037079;28;49192;-70
2022/11/23 00:54:38;;;;;;;;;11.75;4.25;;;;;10.08;64.15;99452.94;5036096;28;45338;-71
2022/11/23 00:57:04;;;;;;;;;6.25;4.00;;;;;10.13;64.00;99460.97;5056214;28;45488;-70
2022/11/23 00:59:29;;;;;;;;;6.75;3.00;;;;;10.13;64.44;99469.88;5057006;28;45582;-70
2022/11/23 01:01:54;;;;;;;;;4.75;4.00;;;;;9.96;64.26;99451.06;5055229;28;45516;-68
2022/11/23 01:04:20;;;;;;;;;6.25;4.75;;;;;10.01;64.96;99450.19;5037215;28;45570;-69
2022/11/23 01:06:45;;;;;;;;;6.00;5.00;;;;;9.95;65.07;99438.59;5055589;28;45451;-69
2022/11/23 01:09:16;;;;;;;;;6.00;3.75;;;;;10.09;64.72;99461.81;5055277;28;46548;-70
2022/11/23 01:11:42;;;;;;;;;6.75;5.50;;;;;9.99;64.55;99455.53;5040936;28;45588;-70
2022/11/23 01:14:08;;;;;;;;;6.67;4.67;;;;;9.99;64.98;99458.19;5037161;28;45476;-69
2022/11/23 01:16:39;;;;;;;;;6.50;3.75;;;;;9.97;65.30;99459.97;5036898;28;45422;-70
2022/11/23 01:19:07;;;;;;;;;4.00;4.00;;;;;10.01;65.44;99455.53;5036778;28;47259;-71
2022/11/23 01:21:34;;;;;;;;;6.00;5.00;;;;;9.92;65.08;99445.69;5036724;28;45469;-71
2022/11/23 01:24:05;;;;;;;;;6.67;4.00;;;;;9.91;65.00;99444.78;5055190;28;45452;-69
2022/11/23 01:26:32;;;;;;;;;7.25;5.25;;;;;9.86;65.52;99437.63;5047803;28;45533;-69
2022/11/23 01:28:57;;;;;;;;;7.50;3.75;;;;;9.91;65.21;99443.91;5053773;28;46197;-70
2022/11/23 01:31:24;;;;;;;;;3.00;3.00;;;;;9.81;65.34;99434.03;5053592;28;45427;-71
2022/11/23 01:33:58;;;;;;;;;7.25;5.00;;;;;9.85;65.47;99442.09;5062163;28;45409;-70
2022/11/23 01:36:28;;;;;;;;;3.00;3.00;;;;;9.82;66.04;99436.72;5028878;28;45677;-72
2022/11/23 01:38:54;;;;;;;;;5.00;3.25;;;;;9.73;65.51;99412.63;5031430;28;47154;-70
2022/11/23 01:41:23;;;;;;;;;5.50;5.50;;;;;9.71;66.33;99422.41;5053338;28;45857;-71
2022/11/23 01:43:51;;;;;;;;;6.50;4.50;;;;;9.49;66.39;99374.22;5050997;28;45459;-70
2022/11/23 01:46:16;;;;;;;;;8.25;5.00;;;;;9.77;66.64;99417.13;5035598;28;45861;-69
2022/11/23 01:48:48;;;;;;;;;4.00;4.00;;;;;9.78;65.97;99417.13;5053269;28;46092;-70
2022/11/23 01:51:17;;;;;;;;;3.75;3.00;;;;;9.80;65.92;99419.81;5053859;28;45551;-71
2022/11/23 01:53:46;;;;;;;;;4.50;3.00;;;;;9.72;66.24;99403.75;5035365;28;45658;-70
2022/11/23 01:56:17;;;;;;;;;3.50;3.50;;;;;9.81;65.85;99418.03;5053900;28;45713;-72
2022/11/23 01:58:49;;;;;;;;;5.00;3.00;;;;;9.81;66.45;99407.38;5051707;28;46281;-70
2022/11/23 02:01:15;;;;;;;;;2.00;2.00;;;;;9.73;66.24;99389.53;5054150;28;45381;-71
2022/11/23 02:03:45;;;;;;;;;6.00;4.00;;;;;9.85;65.81;99415.41;5066127;28;45440;-70
2022/11/23 02:06:17;;;;;;;;;5.25;4.00;;;;;9.86;66.05;99411.84;5070390;28;45582;-70
2022/11/23 02:08:43;;;;;;;;;7.50;5.00;;;;;9.75;66.43;99392.19;5058487;28;45411;-70
2022/11/23 02:11:11;;;;;;;;;5.50;3.25;;;;;9.80;66.07;99408.22;5054735;28;45458;-70
2022/11/23 02:13:37;;;;;;;;;6.00;4.00;;;;;9.62;66.62;99377.88;5053450;28;45485;-71
2022/11/23 02:16:03;;;;;;;;;4.75;4.75;;;;;9.48;66.38;99347.53;5055225;28;45455;-70
2022/11/23 02:18:31;;;;;;;;;8.25;5.00;;;;;9.70;66.45;99399.25;5053406;28;46559;-70
2022/11/23 02:21:02;;;;;;;;;7.75;5.00;;;;;9.68;67.03;99401.91;5052848;28;45609;-70
2022/11/23 02:23:32;;;;;;;;;5.00;4.00;;;;;9.65;67.00;99401.91;5052454;28;45483;-70
2022/11/23 02:26:02;;;;;;;;;5.00;4.00;;;;;9.62;66.67;99396.56;5052988;28;45423;-71
2022/11/23 02:28:35;;;;;;;;;8.00;2.00;;;;;9.55;68.00;99398.28;5051591;28;45488;-70
2022/11/23 02:31:01;;;;;;;;;10.00;4.25;;;;;9.53;68.05;99397.34;5011427;28;1211151;-70
2022/11/23 02:33:28;;;;;;;;;3.25;3.00;;;;;9.50;67.90;99394.69;5036172;28;45360;-72
2022/11/23 02:35:56;;;;;;;;;6.75;5.25;;;;;9.46;67.78;99391.97;5054157;28;45585;-71
2022/11/23 02:38:26;;;;;;;;;6.25;3.25;;;;;9.50;68.00;99393.78;5053871;28;46297;-70
2022/11/23 02:40:51;;;;;;;;;4.50;3.25;;;;;9.30;68.78;99361.59;5053762;28;45482;-71
2022/11/23 02:43:17;;;;;;;;;4.75;3.25;;;;;9.50;68.36;99381.34;5054159;28;45373;-71
2022/11/23 02:45:48;;;;;;;;;7.00;5.00;;;;;9.51;67.92;99388.44;5053049;28;45449;-70
2022/11/23 02:48:13;;;;;;;;;7.00;5.50;;;;;9.50;68.05;99385.78;5053332;28;47525;-70
2022/11/23 02:50:38;;;;;;;;;5.00;5.00;;;;;9.47;68.56;99388.41;5053972;28;45525;-70
2022/11/23 02:53:04;;;;;;;;;4.50;4.25;;;;;9.39;68.46;99370.59;5054285;28;45531;-70
2022/11/23 02:55:29;;;;;;;;;10.50;4.25;;;;;9.49;68.77;99381.34;5054135;28;45496;-71
2022/11/23 02:57:54;;;;;;;;;9.00;5.25;;;;;9.46;67.94;99362.66;5054434;28;45472;-69
2022/11/23 03:00:20;;;;;;;;;7.75;5.00;;;;;9.41;68.49;99354.59;5053159;28;45255;-71
2022/11/23 03:02:45;;;;;;;;;5.50;4.00;;;;;9.48;68.63;99358.22;5049367;28;45469;-70
2022/11/23 03:05:11;;;;;;;;;7.00;4.25;;;;;9.45;68.05;99350.19;5036976;28;45460;-71
2022/11/23 03:07:36;;;;;;;;;7.50;5.75;;;;;9.41;68.64;99354.59;5037697;28;48239;-71
2022/11/23 03:10:04;;;;;;;;;9.00;5.25;;;;;9.47;68.46;99362.66;5054073;28;45437;-69
2022/11/23 03:12:29;;;;;;;;;10.50;5.25;;;;;9.38;69.13;99346.56;5038079;28;45395;-71
2022/11/23 03:14:55;;;;;;;;;4.50;4.50;;;;;9.40;69.22;99353.72;5057727;28;45426;-71
2022/11/23 03:17:20;;;;;;;;;4.75;4.00;;;;;9.33;69.04;99346.53;5057713;28;45711;-71
2022/11/23 03:19:45;;;;;;;;;7.00;4.75;;;;;9.38;68.95;99344.78;5056225;28;45461;-71
2022/11/23 03:22:11;;;;;;;;;9.75;4.00;;;;;9.22;69.24;99302.91;5070586;27;45311;-71
2022/11/23 03:24:36;;;;;;;;;5.00;5.00;;;;;9.50;69.26;99351.09;5057420;28;45568;-71
2022/11/23 03:27:02;;;;;;;;;4.75;3.75;;;;;9.47;69.20;99335.09;5038470;28;47192;-70
2022/11/23 03:29:27;;;;;;;;;7.00;5.00;;;;;9.44;68.37;99332.41;5035398;28;45525;-71
2022/11/23 03:31:53;;;;;;;;;11.75;5.75;;;;;9.53;69.06;99340.47;5035175;28;45999;-71
2022/11/23 03:34:18;;;;;;;;;9.00;5.50;;;;;9.50;68.90;99345.78;5035860;28;45346;-71
2022/11/23 03:36:44;;;;;;;;;4.50;3.50;;;;;9.23;69.16;99288.72;5036627;28;45830;-71
2022/11/23 03:39:10;;;;;;;;;4.75;4.75;;;;;9.50;68.79;99329.78;5036764;28;45447;-71
2022/11/23 03:41:36;;;;;;;;;10.75;6.25;;;;;9.50;68.48;99332.44;5036794;28;45578;-71
2022/11/23 03:44:01;;;;;;;;;6.50;5.25;;;;;9.48;68.95;99324.44;5035552;28;45615;-71
2022/11/23 03:46:27;;;;;;;;;3.00;3.00;;;;;9.52;68.53;99323.59;5036402;28;45461;-71
2022/11/23 03:48:52;;;;;;;;;7.75;4.75;;;;;9.55;68.88;99304.03;5035182;28;45413;-71
2022/11/23 03:51:18;;;;;;;;;5.00;5.00;;;;;9.67;68.85;99319.22;5035706;28;45360;-71
2022/11/23 03:53:43;;;;;;;;;5.75;3.75;;;;;9.59;68.99;99319.19;5037113;28;45473;-70
2022/11/23 03:56:09;;;;;;;;;4.50;4.00;;;;;9.41;69.28;99294.19;5036592;28;45503;-71
2022/11/23 03:58:34;;;;;;;;;6.00;5.25;;;;;9.55;69.00;99320.03;5036361;28;45450;-71
2022/11/23 04:01:00;;;;;;;;;5.75;4.50;;;;;9.53;69.30;99328.03;5036497;28;45565;-71
2022/11/23 04:03:27;;;;;;;;;6.00;6.00;;;;;9.58;70.13;99325.41;5058530;28;45475;-72
2022/11/23 04:05:52;;;;;;;;;4.75;4.75;;;;;9.50;69.77;99311.13;5048287;28;45713;-71
2022/11/23 04:08:18;;;;;;;;;8.25;5.50;;;;;9.47;69.93;99293.34;5035157;28;45322;-71
2022/11/23 04:10:43;;;;;;;;;4.25;4.00;;;;;9.58;70.10;99312.06;5040948;28;45282;-72
2022/11/23 04:13:08;;;;;;;;;7.00;6.00;;;;;9.54;69.80;99305.81;5035478;28;45356;-73
2022/11/23 04:15:34;;;;;;;;;5.75;5.00;;;;;9.52;69.76;99299.59;5014770;28;47168;-72
2022/11/23 04:17:59;;;;;;;;;6.75;6.75;;;;;9.51;69.58;99295.13;5032902;28;45332;-72
2022/11/23 04:20:25;;;;;;;;;5.75;3.75;;;;;9.56;69.59;99311.19;5036954;28;45564;-72
2022/11/23 04:22:50;;;;;;;;;8.50;7.75;;;;;9.52;70.31;99301.34;5036839;28;45663;-71
2022/11/23 04:25:15;;;;;;;;;7.00;5.25;;;;;9.59;70.14;99319.19;5035054;28;46211;-71
2022/11/23 04:27:41;;;;;;;;;5.50;5.50;;;;;9.37;70.20;99284.38;5034174;28;45441;-71
2022/11/23 04:30:07;;;;;;;;;4.75;3.50;;;;;9.52;70.70;99296.03;5048936;28;45714;-71
2022/11/23 04:32:33;;;;;;;;;14.75;5.25;;;;;9.65;70.04;99311.25;5052738;28;45914;-72
2022/11/23 04:34:58;;;;;;;;;8.75;2.50;;;;;9.56;69.76;99289.84;5038652;28;47344;-70
2022/11/23 04:37:23;;;;;;;;;6.00;4.25;;;;;9.67;70.15;99301.47;5056031;28;45477;-71
2022/11/23 04:39:49;;;;;;;;;7.00;5.00;;;;;9.58;69.97;99272.97;5038320;28;45433;-71
2022/11/23 04:42:14;;;;;;;;;6.25;4.00;;;;;9.68;70.32;99292.56;5055849;28;45516;-72
2022/11/23 04:44:40;;;;;;;;;7.00;5.75;;;;;9.67;70.48;99280.16;5037907;28;46959;-72
2022/11/23 04:47:05;;;;;;;;;6.50;5.50;;;;;9.59;70.27;99273.88;5037982;28;45659;-71
2022/11/23 04:49:31;;;;;;;;;5.00;4.25;;;;;9.57;70.68;99279.19;5033206;28;45452;-70
2022/11/23 04:51:56;;;;;;;;;11.50;6.25;;;;;9.53;71.02;99277.38;5039010;28;45350;-70
2022/11/23 04:54:22;;;;;;;;;9.75;6.75;;;;;9.60;71.10;99283.63;5055644;28;45433;-71
2022/11/23 04:56:47;;;;;;;;;6.25;4.25;;;;;9.67;71.26;99288.16;5055443;28;45423;-70
2022/11/23 04:59:13;;;;;;;;;11.00;5.50;;;;;9.48;71.22;99244.47;5059801;28;45529;-72
2022/11/23 05:01:38;;;;;;;;;6.75;5.00;;;;;9.62;71.33;99281.91;5055145;28;45259;-70
2022/11/23 05:04:03;;;;;;;;;6.25;4.75;;;;;9.63;70.60;99267.66;5035442;28;46983;-72
2022/11/23 05:06:29;;;;;;;;;5.00;4.00;;;;;9.55;71.07;99258.72;5037167;28;45391;-71
2022/11/23 05:08:54;;;;;;;;;7.25;6.50;;;;;9.65;71.49;99268.59;5037397;28;45291;-71
2022/11/23 05:11:20;;;;;;;;;9.50;6.50;;;;;9.58;71.90;99258.75;5055745;28;45367;-71
2022/11/23 05:13:45;;;;;;;;;7.00;4.00;;;;;9.51;71.46;99255.16;5055094;28;46171;-71
2022/11/23 05:16:11;;;;;;;;;5.00;5.00;;;;;9.59;71.69;99269.41;5036100;28;45537;-70
2022/11/23 05:18:36;;;;;;;;;3.25;3.25;;;;;9.47;72.54;99268.44;5055533;28;45348;-71
2022/11/23 05:21:02;;;;;;;;;4.50;4.00;;;;;9.33;72.61;99245.25;5037442;28;45471;-71
2022/11/23 05:23:27;;;;;;;;;7.25;3.25;;;;;9.45;72.55;99268.44;5055259;28;45515;-71
2022/11/23 05:25:52;;;;;;;;;5.50;3.00;;;;;9.41;72.19;99261.31;5036930;28;45446;-70
2022/11/23 05:28:19;;;;;;;;;10.00;3.75;;;;;9.53;72.44;99265.81;5055114;28;45404;-71
2022/11/23 05:30:45;;;;;;;;;4.50;4.00;;;;;9.55;71.85;99278.31;5054270;28;45407;-70
2022/11/23 05:33:11;;;;;;;;;9.00;3.00;;;;;9.45;72.53;99260.44;5036549;28;46506;-71
2022/11/23 05:35:36;;;;;;;;;5.75;4.50;;;;;9.45;72.04;99254.22;5054399;28;45351;-70
2022/11/23 05:38:02;;;;;;;;;7.25;5.00;;;;;9.50;72.70;99273.78;5037188;28;45391;-70
2022/11/23 05:40:28;;;;;;;;;5.00;3.25;;;;;9.37;72.29;99252.41;5037266;28;45614;-70
2022/11/23 05:42:57;;;;;;;;;7.50;4.50;;;;;9.49;72.41;99269.38;5036974;28;46906;-71
2022/11/23 05:45:23;;;;;;;;;8.50;6.00;;;;;9.58;72.79;99270.28;5055018;28;45419;-71
2022/11/23 05:47:53;;;;;;;;;7.00;5.25;;;;;9.64;72.28;99274.78;5035494;28;45513;-72
2022/11/23 05:50:20;;;;;;;;;5.50;3.75;;;;;9.70;72.11;99272.16;5037241;28;45646;-72
2022/11/23 05:52:46;;;;;;;;;8.25;7.00;;;;;9.67;72.17;99253.47;5055187;28;45486;-72
2022/11/23 05:55:12;;;;;;;;;10.50;5.25;;;;;9.34;71.53;99180.41;5037171;28;45426;-73
2022/11/23 05:57:38;;;;;;;;;5.75;3.25;;;;;9.78;71.69;99264.19;5055134;28;45404;-72
2022/11/23 06:00:04;;;;;;;;;8.25;6.00;;;;;9.74;72.03;99255.28;5042355;28;45292;-72
2022/11/23 06:02:29;;;;;;;;;5.00;5.00;;;;;9.82;72.22;99257.13;5072172;28;46662;-70
2022/11/23 06:04:55;;;;;;;;;6.25;4.50;;;;;9.76;72.32;99248.19;5041237;28;45918;-70
2022/11/23 06:07:20;;;;;;;;;6.00;6.00;;;;;9.82;71.87;99249.13;5054720;28;45512;-73
2022/11/23 06:09:45;;;;;;;;;6.25;5.00;;;;;9.78;71.83;99243.78;5054723;28;45409;-70
2022/11/23 06:12:11;;;;;;;;;5.75;5.75;;;;;9.75;72.68;99238.41;5051664;28;46274;-72
2022/11/23 06:14:36;;;;;;;;;6.50;5.00;;;;;9.81;72.43;99253.53;5054603;28;45645;-71
2022/11/23 06:17:01;;;;;;;;;6.25;6.25;;;;;9.77;71.95;99241.09;5048747;28;45460;-70
2022/11/23 06:19:28;;;;;;;;;15.50;13.75;;;;;9.89;72.44;99256.25;5044078;28;45370;-70
2022/11/23 06:21:54;;;;;;;;;7.50;7.00;;;;;9.80;71.44;99230.44;5030805;28;47297;-71
2022/11/23 06:24:20;;;;;;;;;9.25;6.75;;;;;9.89;71.63;99238.47;5056034;28;45383;-70
2022/11/23 06:26:45;;;;;;;;;12.25;7.00;;;;;9.89;71.88;99225.13;5051590;28;45381;-72
2022/11/23 06:29:11;;;;;;;;;6.75;5.50;;;;;9.92;71.15;99221.59;5052653;28;45379;-72
2022/11/23 06:31:36;;;;;;;;;7.25;6.00;;;;;10.02;71.30;99235.88;5052904;28;45960;-71
2022/11/23 06:34:01;;;;;;;;;10.25;8.00;;;;;10.13;71.41;99245.69;5049787;28;45588;-72
2022/11/23 06:36:27;;;;;;;;;6.75;6.25;;;;;10.15;71.29;99238.59;5048825;28;45640;-72
2022/11/23 06:38:53;;;;;;;;;7.25;5.50;;;;;10.17;71.01;99227.03;5052080;28;45587;-74
2022/11/23 06:41:19;;;;;;;;;8.00;8.00;;;;;10.13;71.36;99215.47;5056729;28;45712;-72
2022/11/23 06:43:46;;;;;;;;;5.00;5.00;;;;;10.20;71.06;99222.59;5061835;28;45170;-71
2022/11/23 06:46:11;;;;;;;;;7.00;5.00;;;;;10.17;70.69;99219.03;5059338;28;45503;-72
2022/11/23 06:48:36;;;;;;;;;3.25;3.25;;;;;10.19;71.01;99217.25;5054816;28;46209;-73
2022/11/23 06:51:02;;;;;;;;;4.25;3.50;;;;;10.07;71.12;99186.09;5054863;28;45633;-72
2022/11/23 06:53:28;;;;;;;;;4.50;4.00;;;;;10.04;70.88;99178.06;5054100;28;45359;-72
2022/11/23 06:55:59;;;;;;;;;11.50;6.25;;;;;10.07;71.44;99196.75;5034494;28;45458;-70
2022/11/23 06:58:25;;;;;;;;;7.00;5.00;;;;;10.04;71.47;99196.75;5051925;28;45519;-70
2022/11/23 07:00:50;;;;;;;;;8.00;5.50;;;;;9.85;71.16;99147.75;5057306;28;45378;-71
2022/11/23 07:03:24;;;;;;;;;6.33;4.00;;;;;10.10;71.27;99189.66;5053724;28;45570;-71
2022/11/23 07:05:50;;;;;;;;;4.75;3.00;;;;;10.14;71.30;99180.75;5049296;28;45532;-72
2022/11/23 07:08:15;;;;;;;;;23.25;16.50;;;;;10.09;70.77;99185.19;5052037;28;45350;-72
2022/11/23 07:10:41;;;;;;;;;6.75;6.75;;;;;10.11;71.33;99191.44;5053368;28;46334;-70
2022/11/23 07:13:08;;;;;;;;;11.75;10.00;;;;;10.12;71.02;99187.88;5033877;28;45552;-71
2022/11/23 07:15:34;;;;;;;;;10.00;7.00;;;;;10.07;71.29;99181.63;5052703;28;45350;-70
2022/11/23 07:18:00;;;;;;;;;6.50;6.50;;;;;10.17;71.31;99198.56;5053816;28;45640;-71
2022/11/23 07:20:25;;;;;;;;;8.75;5.25;;;;;9.95;71.25;99169.13;5051460;28;45370;-70
2022/11/23 07:23:09;;;;;;;;;16.75;11.00;;;;;10.03;70.61;99185.19;5051967;28;45327;-71
2022/11/23 07:25:36;;;;;;;;;17.75;9.75;;;;;10.06;70.19;99190.50;5048676;28;45599;-72
2022/11/23 07:28:03;;;;;;;;;14.25;10.25;;;;;10.15;70.18;99201.22;5053815;28;45600;-71
2022/11/23 07:30:30;;;;;;;;;13.25;8.50;;;;;10.17;69.99;99203.91;5034502;28;48203;-72
2022/11/23 07:33:07;;;;;;;;;9.00;6.00;;;;;10.18;69.58;99211.03;5034016;28;45442;-71
2022/11/23 07:35:34;;;;;;;;;9.00;7.00;;;;;10.11;69.67;99201.19;5050007;28;45425;-71
2022/11/23 07:38:01;;;;;;;;;9.25;6.50;;;;;9.92;68.96;99178.91;5035805;28;45722;-72
2022/11/23 07:40:26;;;;;;;;;11.75;4.50;;;;;10.00;68.93;99185.16;5027534;28;46258;-71
2022/11/23 07:42:52;;;;;;;;;13.00;9.75;;;;;10.04;69.45;99188.72;5047629;28;45415;-72
2022/11/23 07:45:18;;;;;;;;;10.50;7.00;;;;;10.11;68.76;99188.78;5031933;28;46414;-72
2022/11/23 07:47:44;;;;;;;;;7.00;5.75;;;;;10.25;68.83;99212.81;5055466;28;45755;-72
2022/11/23 07:50:11;;;;;;;;;14.00;9.50;;;;;10.29;68.68;99205.69;5035585;28;45870;-71
2022/11/23 07:52:37;;;;;;;;;16.75;9.25;;;;;10.29;67.80;99211.91;5052807;28;45485;-71
2022/11/23 07:55:03;;;;;;;;;8.25;8.25;;;;;10.10;68.25;99178.09;5050412;28;45648;-73
2022/11/23 07:57:30;;;;;;;;;8.50;6.00;;;;;10.32;68.53;99200.41;5052340;28;45325;-71
2022/11/23 07:59:56;;;;;;;;;33.00;24.50;;;;;10.40;68.69;99198.66;5058332;28;46482;-71
2022/11/23 08:02:21;;;;;;;;;7.00;7.00;;;;;10.39;68.58;99206.66;5061375;28;45402;-70
2022/11/23 08:04:46;;;;;;;;;4.50;4.50;;;;;10.34;68.91;99195.97;5037035;28;45407;-71
2022/11/23 08:07:12;;;;;;;;;3.00;3.00;;;;;10.35;69.10;99191.53;5055400;28;45800;-70
2022/11/23 08:09:37;;;;;;;;;3.33;3.00;;;;;10.36;68.87;99196.88;5054497;28;49090;-71
2022/11/23 08:12:04;;;;;;;;;8.75;6.25;;;;;9.95;68.61;99118.44;5054877;28;45357;-71
2022/11/23 08:14:34;;;;;;;;;6.75;5.50;;;;;10.30;69.32;99197.69;5055176;28;45412;-71
2022/11/23 08:16:59;;;;;;;;;4.00;4.00;;;;;10.44;68.83;99208.47;5032974;28;45450;-71
2022/11/23 08:19:26;;;;;;;;;9.00;5.50;;;;;10.33;69.68;99184.41;5056050;28;46555;-71
2022/11/23 08:21:52;;;;;;;;;4.25;3.00;;;;;10.39;69.76;99182.63;5031248;28;45383;-70
2022/11/23 08:24:17;;;;;;;;;15.00;13.25;;;;;10.48;70.11;99199.56;5039981;28;45339;-72
2022/11/23 08:26:43;;;;;;;;;9.00;5.50;;;;;10.47;69.33;99192.41;5060700;28;45468;-70
2022/11/23 08:29:08;;;;;;;;;12.50;6.75;;;;;10.34;69.87;99163.91;5039778;28;46936;-70
2022/11/23 08:31:34;;;;;;;;;13.25;3.25;;;;;10.37;69.23;99171.06;5056883;28;45408;-71
2022/11/23 08:33:59;;;;;;;;;6.50;6.50;;;;;10.31;70.31;99164.78;5055828;28;45710;-71
2022/11/23 08:36:24;;;;;;;;;6.75;6.00;;;;;10.38;69.67;99164.81;5036454;28;45390;-70
2022/11/23 08:38:51;;;;;;;;;5.50;5.50;;;;;10.46;69.86;99169.31;5054865;28;46162;-69
2022/11/23 08:41:19;;;;;;;;;9.00;6.00;;;;;10.54;69.38;99165.72;5051698;28;45120;-71
2022/11/23 08:43:49;;;;;;;;;4.00;3.00;;;;;10.48;69.20;99148.81;5055048;28;45493;-71
2022/11/23 08:46:14;;;;;;;;;4.75;2.25;;;;;10.57;68.84;99141.72;5048625;28;45450;-71
2022/11/23 08:48:40;;;;;;;;;7.00;5.75;;;;;10.63;68.48;99137.25;5056094;28;45375;-69
2022/11/23 08:51:06;;;;;;;;;5.75;3.00;;;;;10.59;68.24;99126.56;5061798;28;45415;-71
2022/11/23 08:53:31;;;;;;;;;4.75;4.75;;;;;10.38;68.67;99101.66;5035326;28;45566;-70
2022/11/23 08:56:00;;;;;;;;;5.25;3.50;;;;;10.46;68.36;99094.53;5036779;28;46216;-71
2022/11/23 08:58:26;;;;;;;;;5.75;4.25;;;;;10.44;68.22;99101.66;5054858;28;46493;-70
2022/11/23 09:00:51;;;;;;;;;5.50;4.00;;;;;10.47;68.46;99131.00;5036677;28;45310;-70
2022/11/23 09:03:17;;;;;;;;;15.00;12.00;;;;;10.43;68.47;99131.03;5055268;28;45465;-69
2022/11/23 09:05:42;;;;;;;;;8.00;6.75;;;;;10.44;68.84;99125.69;5049049;28;45512;-70
2022/11/23 09:08:08;;;;;;;;;11.25;4.25;;;;;10.46;68.86;99112.31;5052744;28;46350;-71
2022/11/23 09:10:33;;;;;;;;;3.75;3.75;;;;;10.45;68.41;99114.09;5035247;28;45566;-69
2022/11/23 09:12:59;;;;;;;;;4.50;4.00;;;;;10.45;68.96;99114.09;5033532;28;45629;-70
2022/11/23 09:15:24;;;;;;;;;5.00;4.00;;;;;10.34;69.68;99102.53;5036971;28;45594;-70
2022/11/23 09:17:50;;;;;;;;;6.75;6.75;;;;;10.30;70.49;99090.03;5051421;28;46306;-70
2022/11/23 09:20:16;;;;;;;;;10.00;7.00;;;;;10.27;71.09;99082.03;5054384;28;45472;-69
2022/11/23 09:22:42;;;;;;;;;5.00;3.00;;;;;10.36;70.67;99106.13;5053265;28;46101;-71
2022/11/23 09:25:09;;;;;;;;;4.00;3.00;;;;;10.40;71.69;99102.53;5054684;28;45438;-70
2022/11/23 09:27:35;;;;;;;;;9.25;6.50;;;;;10.41;71.13;99093.66;5052507;28;46181;-70
2022/11/23 09:30:04;;;;;;;;;4.25;4.00;;;;;10.30;71.61;99080.25;5026453;28;45545;-70
2022/11/23 09:32:31;;;;;;;;;8.75;5.75;;;;;10.42;71.14;99092.75;5015927;28;45441;-70
2022/11/23 09:34:57;;;;;;;;;8.25;6.00;;;;;10.46;71.23;99098.97;5014447;28;45442;-69
2022/11/23 09:37:22;;;;;;;;;5.50;4.25;;;;;10.50;71.41;99096.31;5017423;28;46149;-70
2022/11/23 09:39:51;;;;;;;;;9.50;6.50;;;;;10.35;70.83;99064.28;5014202;28;45467;-68
2022/11/23 09:42:29;;;;;;;;;11.00;6.00;;;;;10.51;71.56;99090.09;5015027;28;45499;-70
2022/11/23 09:45:04;;;;;;;;;5.00;5.00;;;;;10.56;71.66;99095.44;5011954;28;45570;-70
2022/11/23 09:48:05;;;;;;;;;10.25;9.00;;;;;10.50;72.12;99084.75;5011275;28;47343;-70
2022/11/23 09:50:47;;;;;;;;;5.00;4.50;;;;;10.51;72.31;99084.75;5013685;28;45402;-68
2022/11/23 09:53:23;;;;;;;;;11.50;6.25;;;;;10.50;71.90;99088.28;5013265;28;45438;-70
2022/11/23 09:55:56;;;;;;;;;7.25;5.75;;;;;10.48;72.41;99075.84;5014646;28;45404;-68
2022/11/23 09:58:28;;;;;;;;;4.50;4.50;;;;;10.53;72.86;99073.19;5009958;28;45559;-70
2022/11/23 10:01:03;;;;;;;;;8.75;5.00;;;;;10.56;72.62;99066.06;5013677;28;45465;-68
2022/11/23 10:03:35;;;;;;;;;7.50;6.25;;;;;10.60;73.29;99072.28;5012485;28;46825;-68
2022/11/23 10:06:19;;;;;;;;;11.00;11.00;;;;;10.66;72.95;99065.16;5018025;28;45519;-68
2022/11/23 10:08:58;;;;;;;;;7.50;5.00;;;;;10.66;73.24;99072.28;5015201;28;45686;-68
2022/11/23 10:11:41;;;;;;;;;14.00;9.25;;;;;10.59;73.45;99065.16;5019910;28;45211;-67
2022/11/23 10:14:06;;;;;;;;;3.75;3.75;;;;;10.65;73.12;99065.16;5009321;28;45356;-68
2022/11/23 10:16:46;;;;;;;;;9.00;7.00;;;;;10.62;73.30;99063.34;5012128;28;45296;-68
2022/11/23 10:19:20;;;;;;;;;6.25;4.00;;;;;10.60;73.72;99062.47;5011526;28;46866;-66
2022/11/23 10:22:25;;;;;;;;;6.00;4.75;;;;;10.62;73.88;99084.72;5010941;28;46165;-67
2022/11/23 10:24:52;;;;;;;;;9.00;6.25;;;;;10.61;74.31;99082.03;4957051;28;45538;-69
2022/11/23 10:27:23;;;;;;;;;10.75;5.75;;;;;10.65;74.26;99071.38;5001183;28;45705;-68
2022/11/23 10:29:51;;;;;;;;;8.00;4.50;;;;;10.64;74.24;99082.06;5019654;28;46170;-66
2022/11/23 10:32:40;;;;;;;;;12.25;8.00;;;;;10.57;74.21;99090.97;5033281;28;45288;-67
2022/11/23 10:35:28;;;;;;;;;5.25;5.25;;;;;10.61;74.29;99103.41;5050185;28;45485;-66
2022/11/23 10:38:15;;;;;;;;;6.50;5.50;;;;;10.50;74.81;99090.09;5053753;28;45623;-65
2022/11/23 10:40:57;;;;;;;;;6.75;6.75;;;;;10.17;74.64;99038.44;5052581;28;45794;-67
2022/11/23 10:43:27;;;;;;;;;6.25;5.00;;;;;10.63;74.95;99115.88;5050347;28;45437;-68
2022/11/23 10:46:21;;;;;;;;;6.25;6.00;;;;;10.60;74.81;99128.34;5039187;28;45370;-69
2022/11/23 10:48:47;;;;;;;;;2.00;2.00;;;;;10.45;74.63;99098.09;5047977;28;45432;-66
2022/11/23 10:51:26;;;;;;;;;6.50;3.00;;;;;10.55;75.12;99116.78;5047313;28;46466;-66
2022/11/23 10:53:57;;;;;;;;;10.25;6.75;;;;;10.55;74.71;99125.69;5047185;28;45548;-67
2022/11/23 10:56:23;;;;;;;;;14.75;8.00;;;;;10.44;75.38;99108.75;5049909;28;45533;-65
2022/11/23 10:58:48;;;;;;;;;11.00;8.00;;;;;10.54;75.03;99120.34;5031454;28;46555;-67
2022/11/23 11:01:23;;;;;;;;;10.25;8.75;;;;;10.16;74.95;99058.00;5051469;28;45402;-68
2022/11/23 11:03:53;;;;;;;;;11.75;7.75;;;;;10.51;75.64;99118.56;5047872;28;45616;-68
2022/11/23 11:06:24;;;;;;;;;13.75;12.75;;;;;10.61;75.97;99127.44;5053545;28;45430;-67
2022/11/23 11:08:54;;;;;;;;;9.25;7.00;;;;;10.65;75.35;99122.13;5047795;28;45418;-66
2022/11/23 11:11:37;;;;;;;;;12.75;10.75;;;;;10.61;75.64;99111.44;5044039;28;46487;-67
2022/11/23 11:14:22;;;;;;;;;12.00;9.50;;;;;10.75;76.06;99117.66;5050768;28;45588;-69
2022/11/23 11:16:56;;;;;;;;;9.75;8.25;;;;;10.77;75.67;99131.03;5047169;28;45589;-69
2022/11/23 11:19:33;;;;;;;;;13.25;11.25;;;;;10.77;75.35;99129.22;5052490;28;45583;-66
2022/11/23 11:22:03;;;;;;;;;10.25;7.50;;;;;10.69;75.39;99114.97;5040026;28;46812;-67
2022/11/23 11:24:34;;;;;;;;;18.25;13.00;;;;;10.83;75.98;99131.91;5059453;28;45318;-68
2022/11/23 11:27:11;;;;;;;;;12.00;8.25;;;;;10.75;75.67;99123.00;5036850;28;45559;-67
2022/11/23 11:29:46;;;;;;;;;13.25;10.25;;;;;10.86;76.14;99128.34;5043758;28;45077;-67
2022/11/23 11:32:29;;;;;;;;;12.50;11.50;;;;;10.95;76.17;99144.34;5031919;28;45788;-66
2022/11/23 11:35:19;;;;;;;;;6.50;6.25;;;;;11.00;76.71;99149.69;5030477;28;45468;-67
2022/11/23 11:37:49;;;;;;;;;12.75;10.75;;;;;10.97;76.42;99145.25;5028728;28;45680;-66